GCGM

La Gomera Airport

Alajero, La Gomera Island, Spain
METAR GCGM 181430Z 23009KT 200V260 9999 FEW030 26/17 Q1016 RMK R09/21007KT 160V290 ARP/23007KT 120V290
Observed Flight Rules
Aug-18 @ 14:30 UTC (21 minutes ago) Visual Flight Rules
Wind Visibility Clouds
230° at 9 knots 10,000+ meters
  • Few at 3,000' AGL
Temperatures Readings
Current 26°C / 79°F
Dewpoint 17°C / 63°F
Humidity 58%
Altimeter 30" Hg
Pressure 1016 hPa
Elevation 219
METAR GCGM 181430Z 23009KT 200V260 9999 FEW030 26/17 Q1016 RMK R09/21007KT 160V290 ARP/23007KT 120V290
Observed Flight Rules
Aug-18 @ 14:30 UTC
(21 minutes ago)
VFR
Wind Visibility
230° at 9 knots 10,000+ meters
Clouds
  • Few at 3,000' AGL
Temperature Dewpoint
26°C / 79°F 17°C / 63°F
Humidity Altimeter Pressure
58% 30" Hg 1016 hPa